Time;durP1;ratioP1;P1;durP2;ratioP2;P2;SDS_P1;SDS_P2;PMS_P1;PMS_P2;Temp;Humidity;BMP_temperature;BMP_pressure;BME280_temperature;BME280_humidity;BME280_pressure;Samples;Min_cycle;Max_cycle;Signal;HPM_P1;HPM_P2
2022/12/30 00:00:07;;;;;;;13.50;3.47;;;8.80;99.90;;;;;;2073450;28;20026;-71
2022/12/30 00:01:11;;;;;;;12.05;4.15;;;8.80;99.90;;;;;;2078069;28;20456;-71
2022/12/30 00:02:12;;;;;;;15.38;3.90;;;8.70;99.90;;;;;;2075942;28;20040;-71
2022/12/30 00:03:12;;;;;;;14.43;4.00;;;8.70;99.90;;;;;;2076742;28;20108;-71
2022/12/30 00:04:13;;;;;;;14.02;3.58;;;8.70;99.90;;;;;;2075467;28;20041;-71
2022/12/30 00:05:13;;;;;;;13.18;3.63;;;8.70;99.90;;;;;;2074455;28;20708;-70
2022/12/30 00:06:16;;;;;;;15.30;3.17;;;8.70;99.90;;;;;;2074622;28;20029;-70
2022/12/30 00:07:18;;;;;;;16.38;3.70;;;8.70;99.90;;;;;;2075055;28;20037;-70
2022/12/30 00:09:37;;;;;;;15.32;3.80;;;8.70;99.90;;;;;;2073514;28;20029;-70
2022/12/30 00:10:38;;;;;;;12.50;3.20;;;8.70;99.90;;;;;;2072057;28;20030;-70
2022/12/30 00:11:38;;;;;;;16.58;3.95;;;8.70;99.90;;;;;;2073157;28;20064;-70
2022/12/30 00:33:06;;;;;;;14.43;3.50;;;8.60;99.90;;;;;;2074519;28;20022;-71
2022/12/30 00:33:08;;;;;;;16.60;3.30;;;8.50;99.90;;;;;;2073892;28;20034;-71
2022/12/30 00:34:18;;;;;;;21.48;3.58;;;8.50;99.90;;;;;;2074590;28;20022;-71
2022/12/30 00:35:20;;;;;;;15.27;3.83;;;8.50;99.90;;;;;;2074311;28;20456;-71
2022/12/30 00:36:23;;;;;;;17.55;3.63;;;8.50;99.90;;;;;;2075096;28;20018;-70
2022/12/30 00:37:24;;;;;;;16.08;3.80;;;8.50;99.90;;;;;;2073847;28;20489;-71
2022/12/30 00:38:25;;;;;;;20.52;4.95;;;8.50;99.90;;;;;;2077035;28;20442;-71
2022/12/30 00:39:25;;;;;;;14.65;3.35;;;8.50;99.90;;;;;;2073375;28;20034;-71
2022/12/30 00:40:26;;;;;;;12.23;3.30;;;8.50;99.90;;;;;;2074539;28;20048;-71
2022/12/30 00:44:05;;;;;;;13.73;3.90;;;8.50;99.90;;;;;;2072618;28;20544;-71
2022/12/30 00:45:06;;;;;;;19.95;4.15;;;8.50;99.90;;;;;;2076186;28;20452;-71
2022/12/30 00:46:07;;;;;;;11.80;3.60;;;8.50;99.90;;;;;;2074063;28;20055;-71
2022/12/30 00:47:08;;;;;;;14.13;3.40;;;8.50;99.90;;;;;;2074534;28;20021;-71
2022/12/30 00:56:13;;;;;;;18.77;4.07;;;8.50;99.90;;;;;;2073579;28;20030;-71
2022/12/30 00:57:15;;;;;;;16.02;3.55;;;8.50;99.90;;;;;;2074014;28;20021;-71
2022/12/30 00:58:16;;;;;;;18.30;4.00;;;8.50;99.90;;;;;;2075549;28;20045;-71
2022/12/30 00:59:16;;;;;;;10.27;3.10;;;8.50;99.90;;;;;;2072526;28;20049;-71
2022/12/30 01:00:17;;;;;;;17.33;3.88;;;8.50;99.90;;;;;;2074047;28;20041;-71
2022/12/30 01:01:17;;;;;;;17.00;3.40;;;8.50;99.90;;;;;;2073106;28;20030;-71
2022/12/30 01:02:18;;;;;;;13.82;3.42;;;8.50;99.90;;;;;;2072632;28;20112;-71
2022/12/30 01:03:18;;;;;;;14.05;3.42;;;8.50;99.90;;;;;;2076424;28;20133;-71
2022/12/30 01:04:19;;;;;;;17.77;4.20;;;8.50;99.90;;;;;;2073133;28;20112;-71
2022/12/30 01:05:19;;;;;;;15.48;3.53;;;8.50;99.90;;;;;;2075571;28;20048;-71
2022/12/30 01:06:20;;;;;;;15.32;3.78;;;8.50;99.90;;;;;;2073214;28;20030;-71
2022/12/30 01:07:20;;;;;;;15.88;3.60;;;8.50;99.90;;;;;;2074250;28;20040;-71
2022/12/30 01:08:22;;;;;;;18.15;4.07;;;8.50;99.90;;;;;;2075325;28;20042;-71
2022/12/30 01:09:22;;;;;;;13.30;3.42;;;8.50;99.90;;;;;;2072955;28;20120;-71
2022/12/30 01:10:23;;;;;;;15.68;3.83;;;8.50;99.90;;;;;;2073540;28;20037;-71
2022/12/30 01:11:23;;;;;;;14.45;3.72;;;8.50;99.90;;;;;;2077118;28;20048;-71
2022/12/30 01:12:25;;;;;;;14.95;3.30;;;8.50;99.90;;;;;;2076217;28;20117;-71
2022/12/30 01:13:25;;;;;;;19.83;3.60;;;8.50;99.90;;;;;;2076036;28;20068;-71
2022/12/30 01:14:26;;;;;;;14.10;3.63;;;8.50;99.90;;;;;;2075786;28;20018;-71
2022/12/30 01:15:26;;;;;;;17.25;3.60;;;8.50;99.90;;;;;;2070509;28;20021;-71
2022/12/30 01:16:27;;;;;;;16.48;4.22;;;8.40;99.90;;;;;;2076079;28;20104;-71
2022/12/30 01:17:32;;;;;;;13.18;4.15;;;8.50;99.90;;;;;;2072629;28;20047;-71
2022/12/30 01:18:33;;;;;;;21.08;4.40;;;8.50;99.90;;;;;;2075219;28;20064;-71
2022/12/30 01:19:34;;;;;;;14.23;3.80;;;8.40;99.90;;;;;;2074646;28;20026;-71
2022/12/30 01:20:36;;;;;;;14.18;3.78;;;8.50;99.90;;;;;;2074298;28;20030;-71
2022/12/30 01:21:37;;;;;;;11.30;3.20;;;8.50;99.90;;;;;;2073907;28;20056;-71
2022/12/30 01:22:37;;;;;;;12.85;3.67;;;8.50;99.90;;;;;;2074794;28;20036;-71
2022/12/30 01:23:38;;;;;;;16.80;4.03;;;8.50;99.90;;;;;;2071181;28;20092;-71
2022/12/30 01:24:39;;;;;;;14.30;3.58;;;8.40;99.90;;;;;;2075599;28;20055;-71
2022/12/30 01:25:40;;;;;;;15.07;4.03;;;8.40;99.90;;;;;;2074551;28;20029;-71
2022/12/30 01:26:40;;;;;;;16.20;3.97;;;8.40;99.90;;;;;;2074063;28;20512;-71
2022/12/30 01:27:41;;;;;;;19.73;3.85;;;8.40;99.90;;;;;;2074361;28;20458;-71
2022/12/30 01:28:41;;;;;;;17.67;4.40;;;8.50;99.90;;;;;;2071437;28;20029;-71
2022/12/30 01:29:43;;;;;;;14.57;3.55;;;8.40;99.90;;;;;;2074707;28;20025;-71
2022/12/30 01:30:43;;;;;;;14.32;3.50;;;8.40;99.90;;;;;;2074791;28;20022;-71
2022/12/30 01:31:44;;;;;;;14.13;3.45;;;8.50;99.90;;;;;;2074012;28;20032;-71
2022/12/30 01:32:44;;;;;;;14.05;3.70;;;8.50;99.90;;;;;;2076255;28;20025;-71
2022/12/30 01:33:45;;;;;;;13.93;3.78;;;8.50;99.90;;;;;;2075389;28;20029;-71
2022/12/30 01:34:46;;;;;;;18.17;3.95;;;8.50;99.90;;;;;;2071742;28;20371;-71
2022/12/30 01:35:47;;;;;;;16.65;4.15;;;8.40;99.90;;;;;;2074153;28;20706;-71
2022/12/30 01:36:48;;;;;;;12.98;3.30;;;8.40;99.90;;;;;;2073117;28;20117;-71
2022/12/30 01:37:48;;;;;;;11.23;3.55;;;8.40;99.90;;;;;;2075529;28;20478;-70
2022/12/30 01:38:49;;;;;;;16.60;4.10;;;8.40;99.90;;;;;;2073326;28;20597;-71
2022/12/30 01:39:50;;;;;;;10.45;3.63;;;8.40;99.90;;;;;;2074087;28;20025;-71
2022/12/30 01:40:50;;;;;;;12.98;3.50;;;8.40;99.90;;;;;;2073125;28;20026;-71
2022/12/30 01:41:53;;;;;;;18.25;3.60;;;8.40;99.90;;;;;;2071347;28;20026;-71
2022/12/30 01:42:53;;;;;;;14.68;3.47;;;8.40;99.90;;;;;;2074034;28;20075;-71
2022/12/30 01:43:54;;;;;;;16.92;2.67;;;8.40;99.90;;;;;;2071628;28;20087;-70
2022/12/30 01:45:12;;;;;;;15.43;3.47;;;8.40;99.90;;;;;;2074698;28;20127;-70
2022/12/30 01:46:25;;;;;;;18.80;3.70;;;8.40;99.90;;;;;;2076871;28;20093;-70
2022/12/30 01:47:56;;;;;;;16.17;3.55;;;8.40;99.90;;;;;;2073924;28;20021;-70
2022/12/30 01:48:58;;;;;;;14.23;3.85;;;8.40;99.90;;;;;;2073269;28;20049;-70
2022/12/30 01:50:33;;;;;;;17.05;3.70;;;8.40;99.90;;;;;;2073048;28;20064;-71
2022/12/30 01:51:34;;;;;;;18.17;3.67;;;8.30;99.90;;;;;;2062853;28;20049;-71
2022/12/30 01:52:37;;;;;;;12.32;3.20;;;8.30;99.90;;;;;;2076808;28;20053;-71
2022/12/30 01:53:42;;;;;;;17.13;3.80;;;8.30;99.90;;;;;;2073327;28;20017;-71
2022/12/30 01:54:44;;;;;;;13.93;3.38;;;8.30;99.90;;;;;;2074013;28;20030;-71
2022/12/30 01:55:57;;;;;;;10.77;3.33;;;8.30;99.90;;;;;;2075421;28;20022;-71
2022/12/30 01:56:58;;;;;;;12.85;3.15;;;8.30;99.90;;;;;;2074671;28;20108;-71
2022/12/30 01:58:00;;;;;;;17.58;4.18;;;8.30;99.90;;;;;;2073658;28;20022;-71
2022/12/30 01:59:06;;;;;;;17.90;3.92;;;8.30;99.90;;;;;;2075035;28;20114;-71
2022/12/30 02:00:08;;;;;;;14.75;3.17;;;8.30;99.90;;;;;;2072419;28;20118;-70
2022/12/30 02:01:09;;;;;;;12.75;3.47;;;8.30;99.90;;;;;;2073836;28;20030;-71
2022/12/30 02:02:10;;;;;;;15.55;3.60;;;8.30;99.90;;;;;;2073127;28;20128;-71
2022/12/30 02:03:11;;;;;;;13.95;3.50;;;8.30;99.90;;;;;;2074910;28;20063;-71
2022/12/30 02:04:18;;;;;;;18.50;4.03;;;8.30;99.90;;;;;;2074363;28;20027;-71
2022/12/30 02:05:23;;;;;;;15.80;3.97;;;8.30;99.90;;;;;;2072679;28;20025;-70
2022/12/30 02:06:46;;;;;;;12.85;3.33;;;8.30;99.90;;;;;;2073576;28;20025;-70
2022/12/30 02:08:05;;;;;;;14.95;3.50;;;8.30;99.90;;;;;;2072395;28;20041;-70
2022/12/30 02:09:06;;;;;;;19.15;4.43;;;8.30;99.90;;;;;;2074572;28;20044;-70
2022/12/30 02:10:08;;;;;;;14.30;3.83;;;8.20;99.90;;;;;;2075100;28;20619;-70
2022/12/30 02:11:08;;;;;;;12.18;3.13;;;8.20;99.90;;;;;;2072413;28;20620;-71
2022/12/30 02:12:10;;;;;;;16.30;3.72;;;8.20;99.90;;;;;;2073542;28;20095;-71
2022/12/30 02:13:13;;;;;;;18.02;3.70;;;8.20;99.90;;;;;;2072486;28;20848;-71
2022/12/30 02:14:14;;;;;;;13.05;3.45;;;8.20;99.90;;;;;;2072098;28;20025;-71
2022/12/30 02:15:15;;;;;;;19.00;4.47;;;8.20;99.90;;;;;;2073156;28;20026;-70
2022/12/30 02:16:24;;;;;;;13.52;3.78;;;8.20;99.90;;;;;;2073132;28;20032;-70
2022/12/30 02:17:38;;;;;;;17.90;3.67;;;8.20;99.90;;;;;;2074447;28;20029;-71
2022/12/30 02:18:53;;;;;;;15.13;3.90;;;8.20;99.90;;;;;;2074639;28;20022;-71
2022/12/30 02:20:06;;;;;;;18.27;3.88;;;8.20;99.90;;;;;;2074116;28;20432;-71
2022/12/30 02:21:27;;;;;;;13.77;3.75;;;8.20;99.90;;;;;;2074414;28;20026;-71
2022/12/30 02:22:44;;;;;;;11.93;3.33;;;8.20;99.90;;;;;;2076051;28;20473;-71
2022/12/30 02:24:00;;;;;;;17.38;3.90;;;8.10;99.90;;;;;;2072705;28;20084;-71
2022/12/30 02:25:27;;;;;;;17.50;3.50;;;8.10;99.90;;;;;;2075200;28;20033;-71
2022/12/30 02:26:48;;;;;;;15.68;3.67;;;8.10;99.90;;;;;;2073751;28;20030;-71
2022/12/30 02:27:57;;;;;;;;;;;8.10;99.90;;;;;;2074235;28;20034;-71
2022/12/30 02:29:16;;;;;;;17.40;4.65;;;8.00;99.90;;;;;;2071895;28;20447;-71
2022/12/30 02:30:53;;;;;;;12.23;3.50;;;8.00;99.90;;;;;;2074062;28;20512;-71
2022/12/30 02:31:54;;;;;;;14.55;2.95;;;8.00;99.90;;;;;;2073088;28;20030;-70
2022/12/30 02:33:17;;;;;;;11.35;3.15;;;8.00;99.90;;;;;;2071745;28;20029;-70
2022/12/30 02:34:33;;;;;;;13.43;3.13;;;8.00;99.90;;;;;;2073167;28;20666;-70
2022/12/30 02:35:49;;;;;;;13.55;3.67;;;8.00;99.90;;;;;;2073353;28;20033;-71
2022/12/30 02:37:03;;;;;;;16.33;3.58;;;8.00;99.90;;;;;;2075011;28;20067;-71
2022/12/30 02:38:26;;;;;;;17.40;3.72;;;8.00;99.90;;;;;;2072997;28;20051;-70
2022/12/30 02:40:01;;;;;;;15.63;3.53;;;8.00;99.90;;;;;;2068336;28;20141;-70
2022/12/30 02:44:36;;;;;;;16.33;2.92;;;8.00;99.90;;;;;;2074885;28;20030;-71
2022/12/30 02:45:41;;;;;;;12.57;3.17;;;8.00;99.90;;;;;;2072759;28;20033;-71
2022/12/30 02:46:48;;;;;;;15.98;3.78;;;8.00;99.90;;;;;;2074014;28;20057;-71
2022/12/30 02:47:53;;;;;;;16.42;3.85;;;8.00;99.90;;;;;;2073058;28;20029;-70
2022/12/30 02:48:56;;;;;;;15.98;3.50;;;8.00;99.90;;;;;;2073483;28;21005;-70
2022/12/30 02:53:05;;;;;;;13.60;3.80;;;8.00;99.90;;;;;;2074983;28;20118;-70
2022/12/30 02:54:05;;;;;;;12.70;3.00;;;8.00;99.90;;;;;;2075058;28;20082;-70
2022/12/30 02:55:07;;;;;;;12.13;3.35;;;8.00;99.90;;;;;;2076210;28;20025;-70
2022/12/30 02:56:08;;;;;;;16.38;3.28;;;8.00;99.90;;;;;;2074293;28;20794;-70
2022/12/30 02:57:28;;;;;;;12.77;2.92;;;8.00;99.90;;;;;;2077232;28;20750;-70
2022/12/30 02:58:33;;;;;;;15.60;4.10;;;8.00;99.90;;;;;;2075764;28;20029;-71
2022/12/30 03:05:09;;;;;;;;;;;8.00;99.90;;;;;;2075105;28;20037;-70
2022/12/30 03:06:36;;;;;;;14.88;3.88;;;7.90;99.90;;;;;;2074745;28;20078;-70
2022/12/30 03:07:43;;;;;;;14.32;3.22;;;7.90;99.90;;;;;;2074003;28;20065;-70
2022/12/30 03:09:17;;;;;;;18.42;4.03;;;7.90;99.90;;;;;;2075128;28;20700;-70
2022/12/30 03:11:12;;;;;;;12.05;3.05;;;7.90;99.90;;;;;;2075823;28;20056;-70
2022/12/30 03:12:12;;;;;;;21.38;3.85;;;7.90;99.90;;;;;;2075827;28;20132;-70
2022/12/30 03:13:24;;;;;;;18.15;3.25;;;7.90;99.90;;;;;;2076712;28;20060;-70
2022/12/30 03:14:32;;;;;;;14.65;3.28;;;7.90;99.90;;;;;;2075335;28;20813;-70
2022/12/30 03:15:44;;;;;;;16.63;3.97;;;8.00;99.90;;;;;;2075227;28;20049;-70
2022/12/30 03:16:51;;;;;;;16.08;3.45;;;7.90;99.90;;;;;;2074545;28;20068;-70
2022/12/30 03:17:52;;;;;;;10.43;2.97;;;8.00;99.90;;;;;;2074767;28;20029;-70
2022/12/30 03:18:55;;;;;;;13.90;3.10;;;8.00;99.90;;;;;;2074539;28;20040;-70
2022/12/30 03:20:00;;;;;;;15.70;3.47;;;8.00;99.90;;;;;;2073886;28;20040;-70
2022/12/30 03:21:04;;;;;;;14.73;3.58;;;8.00;99.90;;;;;;2077541;28;20072;-71
2022/12/30 03:22:06;;;;;;;12.57;2.83;;;8.00;99.90;;;;;;2074510;28;20022;-71
2022/12/30 03:27:15;;;;;;;15.15;3.30;;;8.00;99.90;;;;;;2072951;28;20026;-70
2022/12/30 03:28:18;;;;;;;14.82;3.85;;;8.00;99.90;;;;;;2076086;28;20030;-70
2022/12/30 03:29:23;;;;;;;14.20;3.65;;;8.00;99.90;;;;;;2072692;28;20616;-70
2022/12/30 03:30:24;;;;;;;18.42;4.68;;;8.00;99.90;;;;;;2072102;28;20026;-70
2022/12/30 03:31:24;;;;;;;16.20;3.97;;;8.00;99.90;;;;;;2075572;28;20036;-70
2022/12/30 03:32:26;;;;;;;12.23;2.92;;;8.00;99.90;;;;;;2073906;28;20709;-70
2022/12/30 03:33:29;;;;;;;13.25;3.28;;;8.00;99.90;;;;;;2075341;28;20045;-70
2022/12/30 03:34:29;;;;;;;14.90;3.05;;;8.00;99.90;;;;;;2075493;28;20025;-70
2022/12/30 03:35:35;;;;;;;14.73;3.50;;;8.00;99.90;;;;;;2074880;28;20032;-71
2022/12/30 03:36:44;;;;;;;14.70;3.25;;;8.00;99.90;;;;;;2074883;28;20025;-71
2022/12/30 03:37:50;;;;;;;13.57;3.17;;;8.00;99.90;;;;;;2075021;28;20022;-71
2022/12/30 03:39:29;;;;;;;14.52;3.55;;;8.00;99.90;;;;;;2075834;28;20363;-70
2022/12/30 03:40:35;;;;;;;14.52;3.25;;;8.00;99.90;;;;;;2071303;28;20029;-70
2022/12/30 03:41:36;;;;;;;13.38;3.05;;;8.00;99.90;;;;;;2075344;28;20527;-70
2022/12/30 03:42:36;;;;;;;19.55;4.22;;;8.00;99.90;;;;;;2078443;28;20021;-70
2022/12/30 03:43:38;;;;;;;12.70;3.13;;;8.00;99.90;;;;;;2078430;28;20118;-70
2022/12/30 03:44:42;;;;;;;12.40;3.35;;;8.00;99.90;;;;;;2077344;28;20022;-70
2022/12/30 03:45:42;;;;;;;16.45;4.20;;;8.00;99.90;;;;;;2074628;28;20068;-71
2022/12/30 03:46:45;;;;;;;14.38;3.75;;;8.00;99.90;;;;;;2075858;28;20073;-71
2022/12/30 03:47:45;;;;;;;18.27;3.83;;;8.00;99.90;;;;;;2075118;28;20029;-70
2022/12/30 03:48:46;;;;;;;16.48;3.63;;;8.00;99.90;;;;;;2075447;28;20018;-70
2022/12/30 03:49:47;;;;;;;10.75;3.17;;;8.00;99.90;;;;;;2075488;28;20030;-71
2022/12/30 03:50:47;;;;;;;14.32;3.30;;;8.00;99.90;;;;;;2073469;28;20033;-71
2022/12/30 03:51:48;;;;;;;15.45;2.92;;;8.00;99.90;;;;;;2074001;28;20029;-71
2022/12/30 03:52:49;;;;;;;11.63;3.22;;;8.00;99.90;;;;;;2075842;28;20034;-71
2022/12/30 03:53:49;;;;;;;12.90;3.67;;;8.00;99.90;;;;;;2075364;28;20468;-71
2022/12/30 03:54:50;;;;;;;15.57;3.30;;;8.00;99.90;;;;;;2074975;28;20037;-71
2022/12/30 03:55:51;;;;;;;15.52;3.58;;;8.00;99.90;;;;;;2075376;28;20064;-72
2022/12/30 03:56:52;;;;;;;11.23;3.53;;;8.00;99.90;;;;;;2073703;28;20028;-70
2022/12/30 03:57:52;;;;;;;13.57;3.60;;;8.00;99.90;;;;;;2074300;28;20036;-70
2022/12/30 03:58:53;;;;;;;13.75;3.53;;;8.00;99.90;;;;;;2073070;28;20036;-70
2022/12/30 03:59:53;;;;;;;16.63;4.15;;;8.00;99.90;;;;;;2074804;28;20701;-71
2022/12/30 04:00:54;;;;;;;18.48;3.97;;;8.00;99.90;;;;;;2073232;28;20044;-71
2022/12/30 04:01:54;;;;;;;15.90;3.55;;;8.00;99.90;;;;;;2073692;28;20026;-71
2022/12/30 04:02:57;;;;;;;14.90;3.45;;;8.00;99.90;;;;;;2075239;28;20112;-71
2022/12/30 04:03:57;;;;;;;13.60;3.33;;;8.00;99.90;;;;;;2075249;28;20525;-71
2022/12/30 04:04:58;;;;;;;14.60;4.00;;;8.00;99.90;;;;;;2076558;28;20433;-71
2022/12/30 04:05:58;;;;;;;9.98;2.88;;;8.00;99.90;;;;;;2078128;28;20029;-71
2022/12/30 04:06:59;;;;;;;14.05;3.33;;;8.00;99.90;;;;;;2076089;28;20035;-71
2022/12/30 04:08:00;;;;;;;11.23;2.75;;;8.00;99.90;;;;;;2076071;28;20396;-71
2022/12/30 04:09:00;;;;;;;12.13;3.03;;;8.00;99.90;;;;;;2076210;28;20084;-71
2022/12/30 04:10:02;;;;;;;12.60;3.00;;;8.00;99.90;;;;;;2074888;28;20034;-71
2022/12/30 04:11:02;;;;;;;12.98;3.08;;;8.00;99.90;;;;;;2073360;28;20045;-71
2022/12/30 04:12:03;;;;;;;15.02;3.95;;;8.00;99.90;;;;;;2073116;28;20116;-71
2022/12/30 04:13:04;;;;;;;15.00;3.42;;;8.00;99.90;;;;;;2072830;28;20041;-71
2022/12/30 04:14:04;;;;;;;11.25;2.92;;;8.00;99.90;;;;;;2072371;28;20117;-71
2022/12/30 04:15:06;;;;;;;13.35;3.47;;;8.00;99.90;;;;;;2072646;28;20026;-71
2022/12/30 04:16:07;;;;;;;11.57;3.30;;;8.00;99.90;;;;;;2072930;28;20497;-71
2022/12/30 04:17:08;;;;;;;17.05;3.92;;;8.00;99.90;;;;;;2077145;28;20025;-71
2022/12/30 04:18:08;;;;;;;11.38;2.90;;;8.00;99.90;;;;;;2076952;28;20068;-71
2022/12/30 04:19:09;;;;;;;13.32;3.78;;;7.90;99.90;;;;;;2076063;28;20478;-71
2022/12/30 04:20:10;;;;;;;13.80;3.50;;;7.90;99.90;;;;;;2073647;28;20025;-70
2022/12/30 04:21:10;;;;;;;13.57;2.95;;;7.90;99.90;;;;;;2075749;28;20018;-70
2022/12/30 04:22:11;;;;;;;12.52;3.20;;;7.90;99.90;;;;;;2074436;28;20086;-70
2022/12/30 04:23:11;;;;;;;14.65;3.20;;;7.90;99.90;;;;;;2074762;28;20022;-70
2022/12/30 04:24:12;;;;;;;18.08;3.72;;;7.90;99.90;;;;;;2072246;28;20037;-70
2022/12/30 04:25:12;;;;;;;14.63;3.08;;;7.90;99.90;;;;;;2072603;28;20025;-70
2022/12/30 04:26:13;;;;;;;14.77;3.88;;;7.90;99.90;;;;;;2074652;28;20445;-71
2022/12/30 04:27:13;;;;;;;18.75;3.20;;;7.90;99.90;;;;;;2074369;28;20054;-71
2022/12/30 04:28:14;;;;;;;16.13;3.28;;;7.90;99.90;;;;;;2074389;28;20030;-71
2022/12/30 04:29:14;;;;;;;17.55;3.38;;;7.90;99.90;;;;;;2074397;28;20032;-71
2022/12/30 04:30:15;;;;;;;13.20;3.67;;;7.90;99.90;;;;;;2072894;28;20021;-71
2022/12/30 04:31:16;;;;;;;16.10;3.72;;;7.90;99.90;;;;;;2075053;28;20025;-71
2022/12/30 04:32:16;;;;;;;13.32;3.08;;;7.90;99.90;;;;;;2074712;28;20018;-71
2022/12/30 04:33:17;;;;;;;12.70;2.92;;;7.90;99.90;;;;;;2075178;28;20033;-71
2022/12/30 04:34:17;;;;;;;14.93;3.25;;;7.90;99.90;;;;;;2073697;28;20029;-71
2022/12/30 04:35:18;;;;;;;13.82;3.47;;;7.80;99.90;;;;;;2073761;28;20018;-71
2022/12/30 04:36:20;;;;;;;12.98;2.95;;;7.80;99.90;;;;;;2075715;28;20122;-70
2022/12/30 04:37:20;;;;;;;14.70;3.47;;;7.80;99.90;;;;;;2072451;28;20104;-71
2022/12/30 04:38:21;;;;;;;11.90;3.05;;;7.80;99.90;;;;;;2073412;28;20033;-71
2022/12/30 04:39:22;;;;;;;15.55;4.35;;;7.80;99.90;;;;;;2074937;28;20053;-71
2022/12/30 04:40:22;;;;;;;17.77;3.72;;;7.80;99.90;;;;;;2074879;28;20022;-71
2022/12/30 04:41:23;;;;;;;15.93;3.50;;;7.80;99.90;;;;;;2074524;28;20032;-71
2022/12/30 04:42:23;;;;;;;18.58;4.78;;;7.80;99.90;;;;;;2073312;28;20097;-71
2022/12/30 04:43:24;;;;;;;15.55;3.97;;;7.80;99.90;;;;;;2037596;28;1064959;-71
2022/12/30 04:44:24;;;;;;;16.02;3.63;;;7.80;99.90;;;;;;2074245;28;20057;-71
2022/12/30 04:45:25;;;;;;;15.55;3.33;;;7.80;99.90;;;;;;2076816;28;20068;-70
2022/12/30 04:46:25;;;;;;;11.25;3.17;;;7.80;99.90;;;;;;2077849;28;20025;-71
2022/12/30 04:47:26;;;;;;;16.05;3.97;;;7.80;99.90;;;;;;2074167;28;20053;-71
2022/12/30 04:48:26;;;;;;;12.52;3.22;;;7.80;99.90;;;;;;2075110;28;20026;-71
2022/12/30 04:49:27;;;;;;;13.57;2.97;;;7.80;99.90;;;;;;2076363;28;20602;-71
2022/12/30 04:50:28;;;;;;;15.43;3.85;;;7.80;99.90;;;;;;2075309;28;20025;-70
2022/12/30 04:51:28;;;;;;;12.55;3.47;;;7.80;99.90;;;;;;2073780;28;20034;-70
2022/12/30 04:52:29;;;;;;;14.00;3.40;;;7.80;99.90;;;;;;2074096;28;20064;-70
2022/12/30 04:53:29;;;;;;;15.40;4.07;;;7.80;99.90;;;;;;2072671;28;20477;-70
2022/12/30 04:54:30;;;;;;;16.73;3.28;;;7.80;99.90;;;;;;2074515;28;20645;-70
2022/12/30 04:55:30;;;;;;;14.93;3.22;;;7.80;99.90;;;;;;2075712;28;20057;-70
2022/12/30 04:56:31;;;;;;;14.00;3.05;;;7.80;99.90;;;;;;2072846;28;20477;-70
2022/12/30 04:57:31;;;;;;;13.60;3.13;;;7.70;99.90;;;;;;2073453;28;20125;-70
2022/12/30 04:58:32;;;;;;;13.88;3.75;;;7.80;99.90;;;;;;2074348;28;20108;-71
2022/12/30 04:59:32;;;;;;;15.80;3.88;;;7.70;99.90;;;;;;2073913;28;20093;-71
2022/12/30 05:00:34;;;;;;;16.98;4.22;;;7.70;99.90;;;;;;2073450;28;20014;-71
2022/12/30 05:01:34;;;;;;;14.55;3.75;;;7.70;99.90;;;;;;2073888;28;20066;-71
2022/12/30 05:02:35;;;;;;;15.38;3.80;;;7.70;99.90;;;;;;2075378;28;20021;-71
2022/12/30 05:03:35;;;;;;;16.48;3.42;;;7.70;99.90;;;;;;2070516;28;20735;-71
2022/12/30 05:04:36;;;;;;;13.52;3.10;;;7.70;99.90;;;;;;2073817;28;20029;-71
2022/12/30 05:05:36;;;;;;;15.07;3.92;;;7.70;99.90;;;;;;2073668;28;20036;-70
2022/12/30 05:06:37;;;;;;;14.00;3.03;;;7.70;99.90;;;;;;2074683;28;20032;-70
2022/12/30 05:07:38;;;;;;;14.20;3.00;;;7.70;99.90;;;;;;2074792;28;20025;-70
2022/12/30 05:08:38;;;;;;;11.98;2.65;;;7.70;99.90;;;;;;2075780;28;20807;-71
2022/12/30 05:09:39;;;;;;;17.08;3.78;;;7.70;99.90;;;;;;2074385;28;20033;-70
2022/12/30 05:10:40;;;;;;;13.45;3.05;;;7.70;99.90;;;;;;2073192;28;20069;-70
2022/12/30 05:11:40;;;;;;;18.50;3.53;;;7.70;99.90;;;;;;2073358;28;20026;-70
2022/12/30 05:12:41;;;;;;;17.42;4.30;;;7.70;99.90;;;;;;2072968;28;20038;-70
2022/12/30 05:13:41;;;;;;;14.32;3.42;;;7.70;99.90;;;;;;2072833;28;20529;-70
2022/12/30 05:14:42;;;;;;;13.93;3.45;;;7.70;99.90;;;;;;2074863;28;20030;-70
2022/12/30 05:15:42;;;;;;;19.77;3.65;;;7.70;99.90;;;;;;2074161;28;20060;-70
2022/12/30 05:16:43;;;;;;;15.32;3.65;;;7.70;99.90;;;;;;2074570;28;20022;-71
2022/12/30 05:17:43;;;;;;;12.05;3.00;;;7.70;99.90;;;;;;2075926;28;20056;-71
2022/12/30 05:18:44;;;;;;;12.68;3.22;;;7.70;99.90;;;;;;2072273;28;20132;-71
2022/12/30 05:19:44;;;;;;;13.00;2.63;;;7.70;99.90;;;;;;2074241;28;20018;-71
2022/12/30 05:20:45;;;;;;;14.90;3.15;;;7.70;99.90;;;;;;2077936;28;20026;-70
2022/12/30 05:21:45;;;;;;;14.23;3.63;;;7.70;99.90;;;;;;2077109;28;20021;-70
2022/12/30 05:22:46;;;;;;;17.02;3.72;;;7.70;99.90;;;;;;2075370;28;20061;-71
2022/12/30 05:26:38;;;;;;;10.82;3.05;;;7.60;99.90;;;;;;2073630;28;20112;-70
2022/12/30 05:27:39;;;;;;;9.25;2.92;;;7.60;99.90;;;;;;2074234;28;20037;-70
2022/12/30 05:28:39;;;;;;;16.17;3.83;;;7.60;99.90;;;;;;2075062;28;20425;-70
2022/12/30 05:29:40;;;;;;;13.32;3.88;;;7.60;99.90;;;;;;2074257;28;20104;-71
2022/12/30 05:30:40;;;;;;;15.02;3.40;;;7.60;99.90;;;;;;2073640;28;20485;-71
2022/12/30 05:31:42;;;;;;;16.60;3.45;;;7.60;99.90;;;;;;2074492;28;20386;-71
2022/12/30 05:32:43;;;;;;;13.48;3.65;;;7.60;99.90;;;;;;2072329;28;20639;-71
2022/12/30 05:33:44;;;;;;;14.50;2.92;;;7.60;99.90;;;;;;2075493;28;20445;-71
2022/12/30 05:34:45;;;;;;;19.58;3.60;;;7.60;99.90;;;;;;2075584;28;20083;-71
2022/12/30 05:35:48;;;;;;;14.60;3.28;;;7.60;99.90;;;;;;2073291;28;20029;-71
2022/12/30 05:36:49;;;;;;;13.90;3.00;;;7.60;99.90;;;;;;2073775;28;20071;-71
2022/12/30 05:37:49;;;;;;;16.85;3.05;;;7.60;99.90;;;;;;2075236;28;20490;-71
2022/12/30 05:38:50;;;;;;;15.35;3.65;;;7.60;99.90;;;;;;2074376;28;20466;-71
2022/12/30 05:39:50;;;;;;;13.43;3.05;;;7.60;99.90;;;;;;2071920;28;20034;-71
2022/12/30 05:40:51;;;;;;;18.13;4.70;;;7.60;99.90;;;;;;2075235;28;20056;-70
2022/12/30 05:41:51;;;;;;;14.00;3.38;;;7.60;99.90;;;;;;2073117;28;20025;-70
2022/12/30 05:42:52;;;;;;;16.02;4.18;;;7.60;99.90;;;;;;2074242;28;20029;-70
2022/12/30 05:43:52;;;;;;;9.35;3.08;;;7.60;99.90;;;;;;2076268;28;20038;-70
2022/12/30 05:44:53;;;;;;;15.15;3.03;;;7.60;99.90;;;;;;2074332;28;20118;-71
2022/12/30 05:45:53;;;;;;;15.13;3.67;;;7.60;99.90;;;;;;2074941;28;20041;-71
2022/12/30 05:46:54;;;;;;;12.13;3.45;;;7.60;99.90;;;;;;2075880;28;20022;-72
2022/12/30 05:47:54;;;;;;;12.93;3.30;;;7.60;99.90;;;;;;2073985;28;20425;-71
2022/12/30 05:48:55;;;;;;;12.80;3.35;;;7.60;99.90;;;;;;2074254;28;20029;-71
2022/12/30 05:49:55;;;;;;;14.15;3.50;;;7.60;99.90;;;;;;2073188;28;20033;-71
2022/12/30 05:50:56;;;;;;;16.83;3.45;;;7.60;99.90;;;;;;2073297;28;20040;-71
2022/12/30 05:51:57;;;;;;;14.85;3.45;;;7.60;99.90;;;;;;2076334;28;20112;-71
2022/12/30 05:52:58;;;;;;;13.82;3.00;;;7.60;99.90;;;;;;2077652;28;20539;-71
2022/12/30 05:53:58;;;;;;;14.73;3.35;;;7.60;99.90;;;;;;2072153;28;20485;-71
2022/12/30 05:54:59;;;;;;;12.38;3.20;;;7.60;99.90;;;;;;2074372;28;20458;-71
2022/12/30 05:55:59;;;;;;;12.15;3.08;;;7.60;99.90;;;;;;2073042;28;20032;-71
2022/12/30 05:57:00;;;;;;;12.98;3.30;;;7.50;99.90;;;;;;2074724;28;20030;-71
2022/12/30 05:58:00;;;;;;;12.55;4.10;;;7.50;99.90;;;;;;2073567;28;20049;-71
2022/12/30 05:59:01;;;;;;;12.10;3.50;;;7.50;99.90;;;;;;2072617;28;20026;-71
2022/12/30 06:00:02;;;;;;;17.73;3.40;;;7.50;99.90;;;;;;2075005;28;20030;-71
2022/12/30 06:01:02;;;;;;;17.35;3.45;;;7.60;99.90;;;;;;2072945;28;20028;-70
2022/12/30 06:02:03;;;;;;;10.95;3.20;;;7.50;99.90;;;;;;2072760;28;20053;-70
2022/12/30 06:03:04;;;;;;;18.10;3.88;;;7.50;99.90;;;;;;2074095;28;20028;-71
2022/12/30 06:04:05;;;;;;;9.32;2.58;;;7.50;99.90;;;;;;2072251;28;20675;-71
2022/12/30 06:05:06;;;;;;;13.43;3.33;;;7.60;99.90;;;;;;2073069;28;20409;-71
2022/12/30 06:06:08;;;;;;;17.17;3.25;;;7.60;99.90;;;;;;2072316;28;20030;-71
2022/12/30 06:07:09;;;;;;;11.52;3.05;;;7.50;99.90;;;;;;2074382;28;20737;-71
2022/12/30 06:08:10;;;;;;;12.65;2.88;;;7.50;99.90;;;;;;2075467;28;20686;-71
2022/12/30 06:09:10;;;;;;;12.25;3.13;;;7.50;99.90;;;;;;2071713;28;20054;-71
2022/12/30 06:10:11;;;;;;;14.65;2.72;;;7.50;99.90;;;;;;2072262;28;20041;-70
2022/12/30 06:11:11;;;;;;;13.60;3.08;;;7.50;99.90;;;;;;2075283;28;20026;-70
2022/12/30 06:12:12;;;;;;;14.57;3.30;;;7.50;99.90;;;;;;2073411;28;20402;-70
2022/12/30 06:13:13;;;;;;;18.15;4.13;;;7.50;99.90;;;;;;2074008;28;20469;-70
2022/12/30 06:14:15;;;;;;;14.07;3.58;;;7.60;99.90;;;;;;2073230;28;20022;-71
2022/12/30 06:15:16;;;;;;;13.60;3.78;;;7.60;99.90;;;;;;2072288;28;20018;-71
2022/12/30 06:16:19;;;;;;;17.00;3.30;;;7.60;99.90;;;;;;2074135;28;20087;-71
2022/12/30 06:17:19;;;;;;;12.70;3.40;;;7.50;99.90;;;;;;2073834;28;20072;-71
2022/12/30 06:18:20;;;;;;;11.50;3.25;;;7.60;99.90;;;;;;2076418;28;20103;-71
2022/12/30 06:19:21;;;;;;;12.70;2.70;;;7.60;99.90;;;;;;2074325;28;20362;-71
2022/12/30 06:20:21;;;;;;;13.27;2.88;;;7.60;99.90;;;;;;2072844;28;20079;-71